Time,TemperatureF,DewpointF,PressureIn,WindDirection,WindDirectionDegrees,WindSpeedMPH,WindSpeedGustMPH,Humidity,HourlyPrecipIn,Conditions,Clouds,dailyrainin,SolarRadiationWatts/m^2,SoftwareType,DateUTC
2013-08-07 00:01:00,70.0,32.0,-100.00,SSW,208,19.0,28.0,24,0.00,,,0.00,0.000000,,2013-08-07 07:01:00,
2013-08-07 00:12:00,70.0,32.0,-100.00,SSW,208,19.0,28.0,24,0.00,,,0.00,0.000000,,2013-08-07 07:12:00,
2013-08-07 00:21:00,70.0,32.0,-100.00,SSW,208,19.0,28.0,24,0.00,,,0.00,0.000000,,2013-08-07 07:21:00,
2013-08-07 00:52:00,68.0,29.0,-100.00,SSW,206,18.0,30.0,23,0.00,,,0.00,0.000000,,2013-08-07 07:52:00,
2013-08-07 01:01:00,68.0,29.0,-100.00,SSW,206,18.0,30.0,23,0.00,,,0.00,0.000000,,2013-08-07 08:01:00,
2013-08-07 01:11:00,68.0,29.0,-100.00,SSW,206,18.0,30.0,23,0.00,,,0.00,0.000000,,2013-08-07 08:11:00,
2013-08-07 01:21:00,68.0,29.0,-100.00,SSW,206,18.0,30.0,23,0.00,,,0.00,0.000000,,2013-08-07 08:21:00,
2013-08-07 01:52:00,67.0,29.0,-100.00,SSW,208,15.0,23.0,24,0.00,,,0.00,0.000000,,2013-08-07 08:52:00,
2013-08-07 02:01:00,67.0,29.0,-100.00,SSW,208,15.0,23.0,24,0.00,,,0.00,0.000000,,2013-08-07 09:01:00,
2013-08-07 02:11:00,67.0,29.0,-100.00,SSW,208,15.0,23.0,24,0.00,,,0.00,0.000000,,2013-08-07 09:11:00,
2013-08-07 02:21:00,67.0,29.0,-100.00,SSW,208,15.0,23.0,24,0.00,,,0.00,0.000000,,2013-08-07 09:21:00,
2013-08-07 02:54:00,67.0,31.0,-100.00,SSW,209,16.0,26.0,26,0.00,,,0.00,0.000000,,2013-08-07 09:54:00,
2013-08-07 03:01:00,67.0,31.0,-100.00,SSW,209,16.0,26.0,26,0.00,,,0.00,0.000000,,2013-08-07 10:01:00,
2013-08-07 03:11:00,67.0,31.0,-100.00,SSW,209,16.0,26.0,26,0.00,,,0.00,0.000000,,2013-08-07 10:11:00,
2013-08-07 03:21:00,67.0,31.0,-100.00,SSW,209,16.0,26.0,26,0.00,,,0.00,0.000000,,2013-08-07 10:21:00,
2013-08-07 03:52:00,67.0,28.0,-100.00,SSW,209,14.0,21.0,23,0.00,,,0.00,0.000000,,2013-08-07 10:52:00,
2013-08-07 04:01:00,67.0,28.0,-100.00,SSW,209,14.0,21.0,23,0.00,,,0.00,0.000000,,2013-08-07 11:01:00,
2013-08-07 04:11:00,67.0,28.0,-100.00,SSW,209,14.0,21.0,23,0.00,,,0.00,0.000000,,2013-08-07 11:11:00,
2013-08-07 04:22:00,67.0,28.0,-100.00,SSW,209,14.0,21.0,23,0.00,,,0.00,0.000000,,2013-08-07 11:22:00,
2013-08-07 04:53:00,65.0,29.0,-100.00,SSW,205,16.0,23.0,26,0.00,,,0.00,0.000000,,2013-08-07 11:53:00,
2013-08-07 05:02:00,65.0,29.0,-100.00,SSW,205,16.0,23.0,26,0.00,,,0.00,0.000000,,2013-08-07 12:02:00,
2013-08-07 05:11:00,65.0,29.0,-100.00,SSW,205,16.0,23.0,26,0.00,,,0.00,0.000000,,2013-08-07 12:11:00,
2013-08-07 05:22:00,65.0,29.0,-100.00,SSW,205,16.0,23.0,26,0.00,,,0.00,0.000000,,2013-08-07 12:22:00,
2013-08-07 05:52:00,62.0,30.0,-100.00,SSW,199,19.0,24.0,30,0.00,,,0.00,0.000000,,2013-08-07 12:52:00,
2013-08-07 06:02:00,62.0,30.0,-100.00,SSW,199,19.0,24.0,30,0.00,,,0.00,0.000000,,2013-08-07 13:02:00,
2013-08-07 06:22:00,62.0,30.0,-100.00,SSW,199,19.0,24.0,30,0.00,,,0.00,0.000000,,2013-08-07 13:22:00,
2013-08-07 06:53:00,62.0,33.0,-100.00,SSW,196,15.0,21.0,34,0.00,,,0.00,3.000000,,2013-08-07 13:53:00,
2013-08-07 07:01:00,62.0,33.0,-100.00,SSW,196,15.0,21.0,34,0.00,,,0.00,3.000000,,2013-08-07 14:01:00,
2013-08-07 07:11:00,62.0,33.0,-100.00,SSW,196,15.0,21.0,34,0.00,,,0.00,3.000000,,2013-08-07 14:11:00,
2013-08-07 07:22:00,62.0,33.0,-100.00,SSW,196,15.0,21.0,34,0.00,,,0.00,3.000000,,2013-08-07 14:22:00,
2013-08-07 08:02:00,63.0,39.0,-100.00,SSW,203,20.0,27.0,41,0.00,,,0.00,60.000000,,2013-08-07 15:02:00,
2013-08-07 08:12:00,63.0,39.0,-100.00,SSW,203,20.0,27.0,41,0.00,,,0.00,60.000000,,2013-08-07 15:12:00,
2013-08-07 08:22:00,63.0,39.0,-100.00,SSW,203,20.0,27.0,41,0.00,,,0.00,60.000000,,2013-08-07 15:22:00,
2013-08-07 08:53:00,68.0,35.0,-100.00,SSW,193,18.0,26.0,30,0.00,,,0.00,384.000000,,2013-08-07 15:53:00,
2013-08-07 09:02:00,68.0,35.0,-100.00,SSW,193,18.0,26.0,30,0.00,,,0.00,384.000000,,2013-08-07 16:02:00,
2013-08-07 09:11:00,68.0,35.0,-100.00,SSW,193,18.0,26.0,30,0.00,,,0.00,384.000000,,2013-08-07 16:11:00,
2013-08-07 09:22:00,68.0,35.0,-100.00,SSW,193,18.0,26.0,30,0.00,,,0.00,384.000000,,2013-08-07 16:22:00,
2013-08-07 10:01:00,69.0,35.0,-100.00,South,191,18.0,26.0,29,-99.99,,,0.00,638.000000,,2013-08-07 17:01:00,
2013-08-07 10:52:00,75.0,31.0,-100.00,SSW,201,16.0,25.0,20,-99.99,,,0.00,870.000000,,2013-08-07 17:52:00,
2013-08-07 11:02:00,75.0,31.0,-100.00,SSW,201,16.0,25.0,20,-99.99,,,0.00,870.000000,,2013-08-07 18:02:00,
2013-08-07 11:11:00,75.0,31.0,-100.00,SSW,201,16.0,25.0,20,-99.99,,,0.00,870.000000,,2013-08-07 18:11:00,
2013-08-07 11:22:00,75.0,31.0,-100.00,SSW,201,16.0,25.0,20,-99.99,,,0.00,870.000000,,2013-08-07 18:22:00,
2013-08-07 11:52:00,78.0,23.0,-100.00,SSW,203,17.0,26.0,13,0.00,,,0.00,1055.000000,,2013-08-07 18:52:00,
2013-08-07 12:22:00,78.0,23.0,-100.00,SSW,203,17.0,26.0,13,0.00,,,0.00,1055.000000,,2013-08-07 19:22:00,
2013-08-07 12:52:00,83.0,21.0,-100.00,SW,219,14.0,27.0,10,0.00,,,0.00,1163.000000,,2013-08-07 19:52:00,
2013-08-07 13:02:00,83.0,21.0,-100.00,SW,219,14.0,27.0,10,0.00,,,0.00,1163.000000,,2013-08-07 20:02:00,
2013-08-07 13:11:00,83.0,21.0,-100.00,SW,219,14.0,27.0,10,0.00,,,0.00,1163.000000,,2013-08-07 20:11:00,
2013-08-07 13:22:00,83.0,21.0,-100.00,SW,219,14.0,27.0,10,0.00,,,0.00,1163.000000,,2013-08-07 20:22:00,
2013-08-07 14:01:00,84.0,16.0,-100.00,SSW,206,23.0,36.0,8,0.00,,,0.00,1200.000000,,2013-08-07 21:01:00,
2013-08-07 14:11:00,84.0,16.0,-100.00,SSW,206,23.0,36.0,8,0.00,,,0.00,1200.000000,,2013-08-07 21:11:00,
2013-08-07 14:52:00,85.0,14.0,-100.00,SW,223,22.0,36.0,7,0.00,,,0.00,1172.000000,,2013-08-07 21:52:00,
2013-08-07 15:12:00,85.0,14.0,-100.00,SW,223,22.0,36.0,7,0.00,,,0.00,1172.000000,,2013-08-07 22:12:00,
2013-08-07 15:52:00,84.0,16.0,-100.00,SW,221,21.0,37.0,8,0.00,,,0.00,1074.000000,,2013-08-07 22:52:00,
2013-08-07 16:01:00,84.0,16.0,-100.00,SW,221,21.0,37.0,8,0.00,,,0.00,1074.000000,,2013-08-07 23:01:00,
2013-08-07 16:11:00,84.0,16.0,-100.00,SW,221,21.0,37.0,8,0.00,,,0.00,1074.000000,,2013-08-07 23:11:00,
2013-08-07 16:22:00,84.0,16.0,-100.00,SW,221,21.0,37.0,8,0.00,,,0.00,1074.000000,,2013-08-07 23:22:00,
2013-08-07 18:53:00,79.0,-99.9,-100.00,WNW,285,10.0,40.0,0,0.00,,,0.00,446.000000,,2013-08-08 01:53:00,
2013-08-07 19:02:00,79.0,-99.9,-100.00,WNW,285,10.0,40.0,0,0.00,,,0.00,446.000000,,2013-08-08 02:02:00,
2013-08-07 19:11:00,79.0,-99.9,-100.00,WNW,285,10.0,40.0,0,0.00,,,0.00,446.000000,,2013-08-08 02:11:00,
2013-08-07 19:22:00,79.0,-99.9,-100.00,WNW,285,10.0,40.0,0,0.00,,,0.00,446.000000,,2013-08-08 02:22:00,
2013-08-07 20:52:00,72.0,7.0,-100.00,SW,218,15.0,27.0,8,0.00,,,0.00,4.000000,,2013-08-08 03:52:00,
2013-08-07 21:22:00,72.0,7.0,-100.00,SW,218,15.0,27.0,8,0.00,,,0.00,4.000000,,2013-08-08 04:22:00,
2013-08-07 21:53:00,67.0,28.0,-100.00,SSW,200,23.0,33.0,23,0.00,,,0.00,0.000000,,2013-08-08 04:53:00,
2013-08-07 22:01:00,67.0,28.0,-100.00,SSW,200,23.0,33.0,23,0.00,,,0.00,0.000000,,2013-08-08 05:01:00,
2013-08-07 22:11:00,67.0,28.0,-100.00,SSW,200,23.0,33.0,23,0.00,,,0.00,0.000000,,2013-08-08 05:11:00,
2013-08-07 22:21:00,67.0,28.0,-100.00,SSW,200,23.0,33.0,23,0.00,,,0.00,0.000000,,2013-08-08 05:21:00,
2013-08-07 22:52:00,67.0,27.0,-100.00,SSW,209,21.0,32.0,22,0.00,,,0.00,0.000000,,2013-08-08 05:52:00,
2013-08-07 23:01:00,67.0,27.0,-100.00,SSW,209,21.0,32.0,22,0.00,,,0.00,0.000000,,2013-08-08 06:01:00,
2013-08-07 23:11:00,67.0,27.0,-100.00,SSW,209,21.0,32.0,22,0.00,,,0.00,0.000000,,2013-08-08 06:11:00,
2013-08-07 23:21:00,67.0,27.0,-100.00,SSW,209,21.0,32.0,22,0.00,,,0.00,0.000000,,2013-08-08 06:21:00,